Canmore, Canada
Current Conditions -  °F | °C
As of 4:00 AM on Monday 22 Dec 2014 (Local Time) from CYBW Reporting Station
Clear Clear  
Wind Chill: 14°   Ceiling: Unl
Heat Index: 21°   Visibility: 9mi
Dew Point: 12°   Wind: 6mph
Humidity: 68%   Direction: 320°NW
Pressure: 29.68"   Gusts: NA
Location:  51.09°N, 115.36°W
Report Text: CYBW 221100Z AUTO 32005KT 9SM CLR M06/M11 A2968 RMK SLP103
Loading
Personal Weather Stations






























Interactive Weather Map New forecast layout! Learn more

10-Day Weather Forecast

Advertisements
Track Severe Weather on mobile